Time;durP1;ratioP1;P1;durP2;ratioP2;P2;SDS_P1;SDS_P2;PMS_P1;PMS_P2;Temp;Humidity;BMP_temperature;BMP_pressure;BME280_temperature;BME280_humidity;BME280_pressure;Samples;Min_cycle;Max_cycle;Signal;HPM_P1;HPM_P2
2022/12/09 00:01:39;;;;;;;;;45.25;35.50;;;;;;;;5061087;28;61901;-78
2022/12/09 00:04:04;;;;;;;;;33.50;28.50;;;;;;;;5061359;28;62105;-79
2022/12/09 00:06:32;;;;;;;;;46.75;31.00;;;;;;;;5061758;28;61778;-78
2022/12/09 00:08:57;;;;;;;;;47.50;34.00;;;;;;;;5042675;28;63848;-80
2022/12/09 00:11:23;;;;;;;;;37.50;28.25;;;;;;;;5061277;28;62212;-79
2022/12/09 00:13:49;;;;;;;;;37.50;29.00;;;;;;;;5042737;28;61892;-78
2022/12/09 00:16:14;;;;;;;;;39.50;29.00;;;;;;;;5061151;28;61878;-80
2022/12/09 00:18:40;;;;;;;;;45.75;32.25;;;;;;;;5060571;28;61778;-78
2022/12/09 00:21:22;;;;;;;;;36.75;29.50;;;;;;;;5043010;28;61760;-80
2022/12/09 00:23:48;;;;;;;;;39.25;32.75;;;;;;;;5061217;28;62076;-78
2022/12/09 00:26:14;;;;;;;;;44.25;27.00;;;;;;;;5042596;28;62079;-79
2022/12/09 00:28:39;;;;;;;;;37.75;30.00;;;;;;;;5042135;28;64717;-79
2022/12/09 00:31:05;;;;;;;;;41.75;31.50;;;;;;;;5042466;28;61729;-79
2022/12/09 00:33:32;;;;;;;;;46.00;30.25;;;;;;;;5064311;28;61986;-80
2022/12/09 00:36:04;;;;;;;;;42.75;34.25;;;;;;;;5064911;28;61894;-79
2022/12/09 00:38:30;;;;;;;;;37.75;30.50;;;;;;;;5063888;28;62135;-82
2022/12/09 00:40:55;;;;;;;;;37.75;34.75;;;;;;;;5046386;28;61798;-78
2022/12/09 00:43:20;;;;;;;;;38.00;27.00;;;;;;;;5063871;28;62074;-79
2022/12/09 00:45:45;;;;;;;;;36.00;29.25;;;;;;;;5046360;28;61771;-79
2022/12/09 00:48:11;;;;;;;;;59.50;31.75;;;;;;;;5063781;28;61952;-79
2022/12/09 00:50:36;;;;;;;;;38.75;28.00;;;;;;;;5064033;28;62137;-80
2022/12/09 00:53:01;;;;;;;;;41.75;31.25;;;;;;;;5064625;28;62119;-79
2022/12/09 00:55:26;;;;;;;;;46.50;27.75;;;;;;;;5064522;28;62201;-78
2022/12/09 00:57:52;;;;;;;;;33.50;27.25;;;;;;;;5045115;28;63719;-80
2022/12/09 01:00:17;;;;;;;;;32.25;27.25;;;;;;;;5064317;28;61844;-79
2022/12/09 01:02:42;;;;;;;;;36.25;27.75;;;;;;;;5045825;28;61839;-79
2022/12/09 01:05:08;;;;;;;;;31.00;24.50;;;;;;;;5046629;28;61708;-79
2022/12/09 01:07:36;;;;;;;;;29.50;23.75;;;;;;;;5063602;28;61952;-81
2022/12/09 01:10:01;;;;;;;;;27.50;24.00;;;;;;;;5046313;28;61959;-80
2022/12/09 01:12:26;;;;;;;;;32.75;25.00;;;;;;;;5063268;28;61836;-81
2022/12/09 01:14:52;;;;;;;;;24.50;22.25;;;;;;;;5045967;28;62510;-81
2022/12/09 01:17:20;;;;;;;;;32.75;27.00;;;;;;;;5045036;28;64670;-81
2022/12/09 01:19:45;;;;;;;;;29.25;27.00;;;;;;;;5045511;28;61736;-80
2022/12/09 01:22:11;;;;;;;;;37.75;26.25;;;;;;;;5045938;28;61820;-82
2022/12/09 01:24:37;;;;;;;;;34.00;23.75;;;;;;;;5063768;28;62162;-81
2022/12/09 01:27:03;;;;;;;;;32.25;23.50;;;;;;;;5063202;28;62610;-81
2022/12/09 01:29:32;;;;;;;;;37.00;26.50;;;;;;;;5064328;28;61795;-80
2022/12/09 01:32:01;;;;;;;;;37.25;31.75;;;;;;;;5042502;28;62444;-79
2022/12/09 01:34:28;;;;;;;;;36.75;20.75;;;;;;;;5026172;28;62357;-77
2022/12/09 01:36:53;;;;;;;;;38.75;28.75;;;;;;;;5023579;28;62094;-78
2022/12/09 01:39:19;;;;;;;;;36.25;25.00;;;;;;;;5014329;28;62409;-78
2022/12/09 01:41:44;;;;;;;;;33.25;18.75;;;;;;;;5019570;28;62123;-78
2022/12/09 01:44:15;;;;;;;;;41.00;31.75;;;;;;;;5022562;28;61968;-77
2022/12/09 01:46:41;;;;;;;;;34.50;23.75;;;;;;;;5021588;28;63083;-77
2022/12/09 01:49:08;;;;;;;;;31.25;26.75;;;;;;;;5022045;28;61898;-78
2022/12/09 01:51:34;;;;;;;;;36.75;27.00;;;;;;;;5020761;28;61803;-78
2022/12/09 01:54:00;;;;;;;;;30.25;22.00;;;;;;;;5022125;28;62228;-78
2022/12/09 01:56:28;;;;;;;;;26.50;22.25;;;;;;;;5019950;28;63331;-78
2022/12/09 01:58:56;;;;;;;;;27.00;26.00;;;;;;;;5022064;28;62216;-78
2022/12/09 02:01:21;;;;;;;;;35.75;27.00;;;;;;;;5020860;28;62030;-78
2022/12/09 02:03:47;;;;;;;;;38.00;29.50;;;;;;;;5020661;28;62010;-78
2022/12/09 02:06:13;;;;;;;;;33.25;25.50;;;;;;;;5021443;28;61723;-78
2022/12/09 02:08:39;;;;;;;;;35.50;19.50;;;;;;;;5021693;28;61852;-77
2022/12/09 02:11:23;;;;;;;;;31.25;22.25;;;;;;;;5021731;28;62045;-77
2022/12/09 02:13:59;;;;;;;;;37.25;25.50;;;;;;;;5021749;28;62142;-76
2022/12/09 02:16:32;;;;;;;;;43.00;25.00;;;;;;;;5013969;28;64024;-76
2022/12/09 02:19:17;;;;;;;;;32.00;24.00;;;;;;;;5021583;28;62237;-76
2022/12/09 02:21:55;;;;;;;;;30.25;24.25;;;;;;;;5021983;28;61926;-76
2022/12/09 02:24:40;;;;;;;;;28.25;25.50;;;;;;;;5022276;28;62003;-76
2022/12/09 02:27:16;;;;;;;;;34.25;26.50;;;;;;;;5018865;28;63425;-76
2022/12/09 02:29:52;;;;;;;;;27.00;23.50;;;;;;;;5021891;28;61997;-76
2022/12/09 02:32:37;;;;;;;;;35.00;29.25;;;;;;;;5030806;28;61852;-76
2022/12/09 02:35:07;;;;;;;;;36.00;29.50;;;;;;;;5027889;28;62123;-76
2022/12/09 02:37:38;;;;;;;;;27.00;22.50;;;;;;;;5040745;28;62600;-76
2022/12/09 02:40:13;;;;;;;;;37.75;26.00;;;;;;;;5041818;28;61899;-78
2022/12/09 02:42:38;;;;;;;;;30.50;25.25;;;;;;;;5041753;28;61991;-76
2022/12/09 02:45:06;;;;;;;;;35.00;22.75;;;;;;;;5043137;28;62178;-76
2022/12/09 02:47:34;;;;;;;;;31.25;22.75;;;;;;;;5042482;28;62674;-76
2022/12/09 02:50:01;;;;;;;;;37.50;21.25;;;;;;;;5042466;28;61764;-76
2022/12/09 02:52:27;;;;;;;;;34.00;28.75;;;;;;;;5042835;28;61712;-76
2022/12/09 02:54:54;;;;;;;;;46.25;27.50;;;;;;;;5042137;28;61732;-76
2022/12/09 02:57:22;;;;;;;;;24.75;18.50;;;;;;;;5040141;28;63736;-76
2022/12/09 02:59:48;;;;;;;;;35.00;25.75;;;;;;;;5041425;28;61974;-76
2022/12/09 03:02:13;;;;;;;;;31.75;19.50;;;;;;;;5042484;28;62013;-77
2022/12/09 03:04:41;;;;;;;;;32.75;21.50;;;;;;;;5043007;28;61807;-76
2022/12/09 03:07:20;;;;;;;;;31.50;25.25;;;;;;;;5041833;28;61813;-76
2022/12/09 03:09:51;;;;;;;;;28.50;19.50;;;;;;;;5042597;28;61747;-76
2022/12/09 03:12:18;;;;;;;;;32.25;21.00;;;;;;;;5040395;28;61826;-76
2022/12/09 03:14:46;;;;;;;;;26.50;21.75;;;;;;;;5042586;28;62006;-76
2022/12/09 03:17:14;;;;;;;;;27.00;22.00;;;;;;;;5040258;28;63863;-76
2022/12/09 03:19:46;;;;;;;;;26.50;19.00;;;;;;;;5042426;28;62157;-77
2022/12/09 03:22:15;;;;;;;;;24.25;18.00;;;;;;;;5040688;28;62077;-76
2022/12/09 03:24:56;;;;;;;;;17.75;14.00;;;;;;;;5042353;28;62181;-76
2022/12/09 03:27:24;;;;;;;;;33.50;21.25;;;;;;;;5039697;28;64764;-76
2022/12/09 03:29:50;;;;;;;;;25.75;16.00;;;;;;;;5042405;28;61745;-76
2022/12/09 03:32:17;;;;;;;;;20.50;18.50;;;;;;;;5052466;28;61782;-76
2022/12/09 03:34:45;;;;;;;;;20.50;15.75;;;;;;;;5043926;28;62741;-76
2022/12/09 03:37:12;;;;;;;;;22.25;18.50;;;;;;;;5061847;28;61802;-76
2022/12/09 03:39:38;;;;;;;;;21.00;9.00;;;;;;;;5062073;28;61655;-78
2022/12/09 03:42:07;;;;;;;;;15.25;10.75;;;;;;;;5043566;28;61970;-78
2022/12/09 03:44:42;;;;;;;;;20.75;18.25;;;;;;;;5062458;28;61836;-78
2022/12/09 03:47:08;;;;;;;;;19.50;16.00;;;;;;;;5043529;28;63681;-78
2022/12/09 03:49:34;;;;;;;;;19.25;15.25;;;;;;;;5061730;28;61889;-78
2022/12/09 03:52:03;;;;;;;;;23.00;16.00;;;;;;;;5061902;28;62132;-78
2022/12/09 03:54:32;;;;;;;;;13.25;13.25;;;;;;;;5044172;28;62319;-78
2022/12/09 03:56:57;;;;;;;;;18.75;14.00;;;;;;;;5061303;28;62232;-78
2022/12/09 03:59:24;;;;;;;;;18.75;15.00;;;;;;;;5043827;28;62205;-78
2022/12/09 04:01:50;;;;;;;;;21.50;14.00;;;;;;;;5062145;28;61805;-78
2022/12/09 04:04:15;;;;;;;;;27.50;15.00;;;;;;;;5077706;28;62157;-78
2022/12/09 04:06:41;;;;;;;;;21.75;13.00;;;;;;;;5062891;28;61711;-78
2022/12/09 04:09:06;;;;;;;;;19.50;18.00;;;;;;;;5065971;28;61751;-78
2022/12/09 04:11:32;;;;;;;;;19.50;9.50;;;;;;;;5064611;28;61724;-78
2022/12/09 04:13:57;;;;;;;;;18.00;15.25;;;;;;;;5065530;28;61688;-78
2022/12/09 04:16:23;;;;;;;;;15.25;12.25;;;;;;;;5065018;28;61775;-78
2022/12/09 04:18:48;;;;;;;;;21.50;14.00;;;;;;;;5065062;28;61839;-78
2022/12/09 04:21:13;;;;;;;;;25.75;18.75;;;;;;;;5065393;28;61867;-78
2022/12/09 04:23:39;;;;;;;;;21.50;16.75;;;;;;;;5065441;28;62232;-78
2022/12/09 04:26:04;;;;;;;;;18.25;15.25;;;;;;;;5064839;28;62593;-78
2022/12/09 04:28:29;;;;;;;;;20.50;15.50;;;;;;;;5065161;28;62099;-78
2022/12/09 04:30:55;;;;;;;;;15.75;11.00;;;;;;;;5047081;28;62048;-78
2022/12/09 04:33:20;;;;;;;;;15.25;10.00;;;;;;;;5047191;28;62002;-78
2022/12/09 04:35:45;;;;;;;;;21.25;14.75;;;;;;;;5064233;28;62787;-78
2022/12/09 04:38:10;;;;;;;;;18.00;13.00;;;;;;;;5065266;28;61979;-77
2022/12/09 04:40:36;;;;;;;;;17.00;11.25;;;;;;;;5065116;28;61810;-78
2022/12/09 04:43:02;;;;;;;;;12.75;11.25;;;;;;;;5065047;28;61979;-78
2022/12/09 04:45:27;;;;;;;;;20.25;17.75;;;;;;;;5046401;28;63728;-78
2022/12/09 04:47:52;;;;;;;;;17.75;11.25;;;;;;;;5046426;28;61883;-78
2022/12/09 04:50:17;;;;;;;;;14.00;11.50;;;;;;;;5079739;28;61908;-78
2022/12/09 04:52:43;;;;;;;;;18.25;13.50;;;;;;;;5065117;28;61810;-78
2022/12/09 04:55:09;;;;;;;;;21.50;13.25;;;;;;;;5046001;28;64917;-78
2022/12/09 04:57:34;;;;;;;;;15.00;13.25;;;;;;;;5064576;28;62057;-78
2022/12/09 04:59:59;;;;;;;;;19.50;11.75;;;;;;;;5064920;28;61802;-78
2022/12/09 05:02:25;;;;;;;;;20.00;14.25;;;;;;;;5046525;28;61821;-78
2022/12/09 05:04:50;;;;;;;;;21.50;15.75;;;;;;;;5045953;28;64042;-78
2022/12/09 05:07:15;;;;;;;;;17.50;14.00;;;;;;;;5046135;28;61939;-78
2022/12/09 05:09:41;;;;;;;;;16.50;11.75;;;;;;;;5046788;28;61950;-77
2022/12/09 05:12:06;;;;;;;;;15.50;11.00;;;;;;;;5045713;28;61869;-78
2022/12/09 05:14:31;;;;;;;;;19.25;16.75;;;;;;;;5063859;28;62609;-78
2022/12/09 05:16:57;;;;;;;;;18.00;12.00;;;;;;;;5064470;28;61761;-78
2022/12/09 05:19:22;;;;;;;;;17.00;12.25;;;;;;;;5063280;28;62551;-78
2022/12/09 05:21:47;;;;;;;;;14.50;12.50;;;;;;;;5064791;28;61870;-78
2022/12/09 05:24:13;;;;;;;;;13.50;10.50;;;;;;;;5063179;28;62244;-78
2022/12/09 05:26:38;;;;;;;;;17.75;14.25;;;;;;;;5079639;28;62130;-76
2022/12/09 05:29:03;;;;;;;;;17.50;14.00;;;;;;;;5064576;28;62095;-78
2022/12/09 05:31:28;;;;;;;;;13.50;13.25;;;;;;;;5045146;28;61723;-78
2022/12/09 05:33:55;;;;;;;;;19.50;16.50;;;;;;;;5063125;28;61900;-78
2022/12/09 05:36:23;;;;;;;;;14.50;11.50;;;;;;;;5045978;28;62351;-78
2022/12/09 05:38:51;;;;;;;;;17.50;14.25;;;;;;;;5064362;28;62197;-77
2022/12/09 05:41:17;;;;;;;;;18.50;12.25;;;;;;;;5064161;28;61782;-78
2022/12/09 05:43:42;;;;;;;;;19.00;13.00;;;;;;;;5078703;28;64928;-78
2022/12/09 05:46:08;;;;;;;;;17.00;10.50;;;;;;;;5045342;28;61740;-77
2022/12/09 05:48:33;;;;;;;;;16.50;13.25;;;;;;;;5063434;28;62506;-79
2022/12/09 05:51:00;;;;;;;;;20.75;13.75;;;;;;;;5064399;28;61789;-77
2022/12/09 05:53:25;;;;;;;;;16.50;16.50;;;;;;;;5044897;28;63869;-78
2022/12/09 05:55:51;;;;;;;;;16.00;14.25;;;;;;;;5064058;28;61900;-78
2022/12/09 05:58:16;;;;;;;;;24.50;18.25;;;;;;;;5063970;28;61738;-78
2022/12/09 06:00:41;;;;;;;;;18.75;14.00;;;;;;;;5045975;28;61798;-78
2022/12/09 06:03:06;;;;;;;;;24.00;14.25;;;;;;;;5062883;28;62182;-77
2022/12/09 06:05:32;;;;;;;;;22.50;16.50;;;;;;;;5045802;28;62043;-77
2022/12/09 06:07:57;;;;;;;;;17.00;12.00;;;;;;;;5063563;28;61844;-77
2022/12/09 06:10:22;;;;;;;;;20.00;16.50;;;;;;;;5063932;28;62195;-74
2022/12/09 06:12:48;;;;;;;;;48.75;32.25;;;;;;;;5062180;28;62883;-76
2022/12/09 06:15:13;;;;;;;;;27.50;19.25;;;;;;;;5063750;28;61831;-78
2022/12/09 06:17:38;;;;;;;;;22.00;14.75;;;;;;;;5063275;28;61814;-77
2022/12/09 06:20:04;;;;;;;;;14.75;11.50;;;;;;;;5063529;28;61789;-77
2022/12/09 06:22:29;;;;;;;;;25.25;19.00;;;;;;;;5044406;28;64161;-77
2022/12/09 06:24:55;;;;;;;;;27.75;19.00;;;;;;;;5063690;28;61884;-77
2022/12/09 06:27:20;;;;;;;;;27.75;18.50;;;;;;;;5046911;28;62040;-77
2022/12/09 06:29:46;;;;;;;;;19.75;15.75;;;;;;;;5044097;28;62246;-77
2022/12/09 06:32:11;;;;;;;;;19.00;15.50;;;;;;;;5044226;28;63765;-76
2022/12/09 06:34:36;;;;;;;;;20.00;11.75;;;;;;;;5062974;28;61897;-78
2022/12/09 06:37:01;;;;;;;;;27.25;16.00;;;;;;;;5063274;28;62167;-79
2022/12/09 06:39:27;;;;;;;;;19.50;17.25;;;;;;;;5063655;28;61836;-78
2022/12/09 06:41:52;;;;;;;;;20.75;15.00;;;;;;;;5043210;28;63498;-75
2022/12/09 06:44:17;;;;;;;;;21.50;17.00;;;;;;;;5060823;28;61811;-77
2022/12/09 06:46:43;;;;;;;;;25.75;18.25;;;;;;;;5060541;28;61911;-76
2022/12/09 06:49:08;;;;;;;;;17.50;15.50;;;;;;;;5043367;28;62163;-77
2022/12/09 06:51:33;;;;;;;;;23.50;17.75;;;;;;;;5060599;28;62250;-77
2022/12/09 06:53:59;;;;;;;;;18.75;12.25;;;;;;;;5061775;28;62203;-76
2022/12/09 06:56:25;;;;;;;;;20.25;16.50;;;;;;;;5061983;28;62254;-76
2022/12/09 06:58:51;;;;;;;;;22.25;18.25;;;;;;;;5062143;28;62025;-76
2022/12/09 07:01:18;;;;;;;;;27.25;15.25;;;;;;;;5061995;28;62558;-77
2022/12/09 07:03:45;;;;;;;;;24.25;20.25;;;;;;;;5062524;28;61766;-77
2022/12/09 07:06:34;;;;;;;;;23.00;16.50;;;;;;;;5063180;28;61775;-76
2022/12/09 07:09:00;;;;;;;;;31.25;16.25;;;;;;;;5054192;28;61766;-76
2022/12/09 07:11:26;;;;;;;;;21.75;16.50;;;;;;;;5061770;28;62748;-77
2022/12/09 07:13:51;;;;;;;;;24.00;20.00;;;;;;;;5061752;28;61802;-77
2022/12/09 07:16:17;;;;;;;;;33.25;18.00;;;;;;;;5044394;28;62183;-76
2022/12/09 07:18:42;;;;;;;;;30.00;22.50;;;;;;;;5062422;28;61856;-77
2022/12/09 07:21:11;;;;;;;;;24.25;19.50;;;;;;;;5061892;28;61988;-76
2022/12/09 07:23:37;;;;;;;;;25.25;17.25;;;;;;;;5062741;28;61837;-77
2022/12/09 07:26:04;;;;;;;;;23.50;15.75;;;;;;;;5044030;28;62153;-77
2022/12/09 07:28:30;;;;;;;;;14.75;13.00;;;;;;;;5044305;28;61949;-77
2022/12/09 07:30:55;;;;;;;;;26.75;17.75;;;;;;;;5061619;28;61834;-76
2022/12/09 07:33:20;;;;;;;;;17.25;15.00;;;;;;;;5043447;28;62202;-77
2022/12/09 07:35:45;;;;;;;;;23.75;17.50;;;;;;;;5062451;28;62123;-77
2022/12/09 07:38:11;;;;;;;;;25.50;19.00;;;;;;;;5062233;28;61796;-77
2022/12/09 07:40:39;;;;;;;;;23.75;16.25;;;;;;;;5077071;28;63933;-77
2022/12/09 07:43:05;;;;;;;;;23.75;19.00;;;;;;;;5061702;28;61751;-76
2022/12/09 07:45:32;;;;;;;;;27.25;20.75;;;;;;;;5043996;28;61867;-77
2022/12/09 07:47:57;;;;;;;;;27.50;20.75;;;;;;;;5062018;28;61758;-77
2022/12/09 07:50:23;;;;;;;;;28.25;18.75;;;;;;;;5042870;28;63445;-76
2022/12/09 07:52:48;;;;;;;;;20.50;15.25;;;;;;;;5061647;28;61999;-77
2022/12/09 07:55:13;;;;;;;;;19.00;14.50;;;;;;;;5061328;28;61801;-76
2022/12/09 07:57:38;;;;;;;;;19.50;16.00;;;;;;;;5061823;28;61881;-77
2022/12/09 08:00:04;;;;;;;;;19.50;14.25;;;;;;;;5042560;28;63824;-76
2022/12/09 08:02:29;;;;;;;;;27.00;18.00;;;;;;;;5061799;28;61933;-76
2022/12/09 08:04:54;;;;;;;;;20.00;16.00;;;;;;;;5062001;28;61876;-77
2022/12/09 08:07:20;;;;;;;;;17.00;12.00;;;;;;;;5043622;28;62382;-76
2022/12/09 08:09:45;;;;;;;;;23.75;21.75;;;;;;;;5061381;28;62134;-76
2022/12/09 08:12:11;;;;;;;;;20.50;18.50;;;;;;;;5061149;28;62031;-77
2022/12/09 08:14:36;;;;;;;;;25.50;18.00;;;;;;;;5061719;28;61998;-77
2022/12/09 08:17:01;;;;;;;;;20.25;15.75;;;;;;;;5062204;28;61806;-77
2022/12/09 08:19:27;;;;;;;;;22.25;18.50;;;;;;;;5060513;28;61755;-77
2022/12/09 08:21:52;;;;;;;;;26.75;16.25;;;;;;;;5043638;28;62051;-77
2022/12/09 08:24:17;;;;;;;;;23.75;17.25;;;;;;;;5061480;28;62014;-76
2022/12/09 08:26:42;;;;;;;;;29.50;21.75;;;;;;;;5043641;28;62123;-76
2022/12/09 08:29:09;;;;;;;;;22.00;20.00;;;;;;;;5060721;28;61836;-76
2022/12/09 08:31:34;;;;;;;;;22.00;17.50;;;;;;;;5061520;28;61949;-76
2022/12/09 08:34:01;;;;;;;;;25.25;22.25;;;;;;;;5043467;28;62579;-76
2022/12/09 08:36:26;;;;;;;;;15.75;14.00;;;;;;;;5061667;28;61871;-76
2022/12/09 08:38:52;;;;;;;;;18.25;16.00;;;;;;;;5060999;28;62946;-77
2022/12/09 08:41:17;;;;;;;;;18.00;13.25;;;;;;;;5061267;28;61877;-76
2022/12/09 08:43:43;;;;;;;;;17.00;11.75;;;;;;;;5042966;28;61893;-77
2022/12/09 08:46:09;;;;;;;;;20.00;16.25;;;;;;;;5043672;28;61751;-77
2022/12/09 08:48:35;;;;;;;;;22.25;17.25;;;;;;;;5060272;28;62785;-77
2022/12/09 08:51:01;;;;;;;;;18.00;12.00;;;;;;;;5061531;28;61813;-77
2022/12/09 08:53:26;;;;;;;;;21.00;15.75;;;;;;;;5062498;28;61988;-77
2022/12/09 08:55:51;;;;;;;;;24.25;18.50;;;;;;;;5065219;28;61927;-76
2022/12/09 08:58:16;;;;;;;;;27.75;20.00;;;;;;;;5063886;28;61833;-77
2022/12/09 09:00:42;;;;;;;;;30.25;21.00;;;;;;;;5064665;28;61900;-77
2022/12/09 09:03:07;;;;;;;;;27.25;20.25;;;;;;;;5065238;28;61703;-77
2022/12/09 09:05:32;;;;;;;;;26.50;21.75;;;;;;;;5064801;28;62233;-77
2022/12/09 09:07:58;;;;;;;;;26.00;20.75;;;;;;;;5064273;28;61928;-77
2022/12/09 09:10:23;;;;;;;;;25.25;21.25;;;;;;;;5064715;28;61826;-76
2022/12/09 09:12:49;;;;;;;;;26.25;16.00;;;;;;;;5063908;28;61938;-77
2022/12/09 09:15:14;;;;;;;;;19.50;12.00;;;;;;;;5064861;28;61872;-77
2022/12/09 09:17:39;;;;;;;;;17.50;14.00;;;;;;;;5063881;28;62637;-77
2022/12/09 09:20:05;;;;;;;;;22.50;20.00;;;;;;;;5064483;28;61882;-77
2022/12/09 09:22:30;;;;;;;;;23.25;19.75;;;;;;;;5064516;28;61810;-77
2022/12/09 09:24:55;;;;;;;;;23.50;14.75;;;;;;;;5064841;28;62041;-77
2022/12/09 09:27:21;;;;;;;;;25.25;17.75;;;;;;;;5063466;28;62969;-77
2022/12/09 09:29:46;;;;;;;;;21.75;16.25;;;;;;;;5046116;28;61994;-76
2022/12/09 09:32:12;;;;;;;;;26.75;22.25;;;;;;;;5064123;28;61936;-77
2022/12/09 09:34:37;;;;;;;;;29.50;21.00;;;;;;;;5064132;28;61700;-77
2022/12/09 09:37:02;;;;;;;;;28.00;20.25;;;;;;;;5063906;28;62013;-77
2022/12/09 09:39:27;;;;;;;;;25.25;20.00;;;;;;;;5063953;28;61683;-76
2022/12/09 09:41:57;;;;;;;;;17.50;16.50;;;;;;;;5063575;28;62092;-77
2022/12/09 09:44:25;;;;;;;;;24.00;17.25;;;;;;;;5046362;28;61751;-76
2022/12/09 09:46:51;;;;;;;;;24.25;15.75;;;;;;;;5045269;28;64539;-77
2022/12/09 09:49:21;;;;;;;;;27.75;19.50;;;;;;;;5063811;28;61955;-77
2022/12/09 09:51:47;;;;;;;;;22.75;18.25;;;;;;;;5064042;28;61751;-77
2022/12/09 09:54:13;;;;;;;;;21.50;17.50;;;;;;;;5045768;28;62086;-76
2022/12/09 09:56:45;;;;;;;;;27.00;16.25;;;;;;;;5063157;28;61904;-76
2022/12/09 09:59:35;;;;;;;;;20.50;17.00;;;;;;;;5064183;28;61990;-77
2022/12/09 10:02:06;;;;;;;;;27.00;19.00;;;;;;;;5045555;28;61923;-77
2022/12/09 10:04:32;;;;;;;;;25.25;19.00;;;;;;;;5064008;28;61692;-77
2022/12/09 10:07:03;;;;;;;;;27.00;21.25;;;;;;;;5063296;28;61901;-77
2022/12/09 10:09:32;;;;;;;;;34.25;23.25;;;;;;;;5045290;28;61971;-76
2022/12/09 10:12:00;;;;;;;;;43.50;24.25;;;;;;;;5062679;28;62504;-76
2022/12/09 10:14:31;;;;;;;;;23.25;20.50;;;;;;;;5063947;28;61810;-76
2022/12/09 10:17:17;;;;;;;;;44.25;32.25;;;;;;;;5062919;28;63577;-76
2022/12/09 10:19:45;;;;;;;;;33.00;23.00;;;;;;;;5045297;28;62006;-77
2022/12/09 10:22:12;;;;;;;;;41.50;28.25;;;;;;;;5063853;28;61694;-76
2022/12/09 10:24:40;;;;;;;;;21.00;19.75;;;;;;;;5063417;28;61739;-76
2022/12/09 10:27:11;;;;;;;;;26.25;21.50;;;;;;;;5044339;28;63780;-77
2022/12/09 10:29:44;;;;;;;;;29.00;25.75;;;;;;;;5063669;28;61846;-76
2022/12/09 10:32:13;;;;;;;;;34.25;26.50;;;;;;;;5044737;28;62023;-77
2022/12/09 10:34:38;;;;;;;;;28.50;22.25;;;;;;;;5063556;28;61920;-76
2022/12/09 10:37:03;;;;;;;;;30.50;24.75;;;;;;;;5044679;28;63888;-76
2022/12/09 10:39:29;;;;;;;;;35.00;28.25;;;;;;;;5063155;28;61910;-77
2022/12/09 10:44:40;;;;;;;;;41.00;31.75;;;;;;;;5063103;28;61790;-76
2022/12/09 10:47:15;;;;;;;;;36.25;26.25;;;;;;;;5062433;28;62736;-76
2022/12/09 10:49:41;;;;;;;;;32.50;23.50;;;;;;;;5044487;28;61716;-81
2022/12/09 10:52:06;;;;;;;;;28.25;25.25;;;;;;;;5044550;28;61842;-76
2022/12/09 10:54:36;;;;;;;;;32.25;23.75;;;;;;;;5062098;28;61972;-77
2022/12/09 10:57:01;;;;;;;;;28.00;24.00;;;;;;;;5059974;28;62881;-76
2022/12/09 10:59:28;;;;;;;;;36.25;28.25;;;;;;;;5043654;28;62355;-76
2022/12/09 11:02:02;;;;;;;;;36.75;24.25;;;;;;;;5062179;28;61908;-76
2022/12/09 11:04:35;;;;;;;;;28.75;24.75;;;;;;;;5062321;28;61805;-77
2022/12/09 11:07:02;;;;;;;;;36.25;23.00;;;;;;;;5061154;28;64769;-76
2022/12/09 11:09:30;;;;;;;;;33.50;17.75;;;;;;;;5062658;28;61871;-76
2022/12/09 11:11:55;;;;;;;;;23.00;17.00;;;;;;;;5043982;28;62109;-76
2022/12/09 11:14:23;;;;;;;;;24.50;17.25;;;;;;;;5062869;28;61867;-76
2022/12/09 11:16:53;;;;;;;;;26.50;17.00;;;;;;;;5061729;28;62173;-76
2022/12/09 11:19:27;;;;;;;;;27.75;23.50;;;;;;;;5062307;28;61818;-76
2022/12/09 11:22:11;;;;;;;;;35.25;22.75;;;;;;;;5062412;28;62200;-76
2022/12/09 11:24:36;;;;;;;;;35.50;25.25;;;;;;;;5062513;28;61952;-76
2022/12/09 11:27:01;;;;;;;;;46.25;34.50;;;;;;;;5061647;28;61926;-76
2022/12/09 11:29:27;;;;;;;;;31.75;23.00;;;;;;;;5062272;28;61798;-77
2022/12/09 11:31:52;;;;;;;;;38.25;28.00;;;;;;;;5062285;28;61992;-76
2022/12/09 11:34:23;;;;;;;;;32.25;30.25;;;;;;;;5061499;28;62130;-76
2022/12/09 11:36:55;;;;;;;;;35.75;30.00;;;;;;;;5058490;28;61911;-77
2022/12/09 11:39:22;;;;;;;;;35.50;25.50;;;;;;;;5043161;28;62043;-77
2022/12/09 11:44:34;;;;;;;;;28.00;26.25;;;;;;;;5061844;28;61936;-76
2022/12/09 11:47:11;;;;;;;;;36.50;26.00;;;;;;;;5043562;28;63602;-74
2022/12/09 11:49:46;;;;;;;;;29.00;25.75;;;;;;;;5043715;28;61920;-76
2022/12/09 11:52:17;;;;;;;;;36.00;24.50;;;;;;;;5061981;28;61868;-76
2022/12/09 11:54:48;;;;;;;;;29.25;22.00;;;;;;;;5062123;28;61877;-76
2022/12/09 11:57:41;;;;;;;;;33.00;22.50;;;;;;;;5043227;28;63751;-76
2022/12/09 12:00:27;;;;;;;;;33.50;25.00;;;;;;;;5062203;28;61928;-76
2022/12/09 12:03:01;;;;;;;;;39.25;27.00;;;;;;;;5062315;28;61914;-77
2022/12/09 12:05:48;;;;;;;;;36.25;28.00;;;;;;;;5061709;28;62222;-76
2022/12/09 12:08:17;;;;;;;;;41.00;26.75;;;;;;;;5061328;28;62819;-76
2022/12/09 12:10:45;;;;;;;;;34.25;30.75;;;;;;;;5061723;28;61826;-76
2022/12/09 12:13:10;;;;;;;;;33.50;23.75;;;;;;;;5061018;28;61741;-76
2022/12/09 12:15:39;;;;;;;;;33.00;24.50;;;;;;;;5062014;28;62039;-75
2022/12/09 12:18:08;;;;;;;;;42.50;28.75;;;;;;;;5060370;28;62830;-75
2022/12/09 12:20:41;;;;;;;;;35.50;28.00;;;;;;;;5061083;28;62098;-76
2022/12/09 12:23:09;;;;;;;;;36.00;30.00;;;;;;;;5061571;28;62032;-76
2022/12/09 12:25:45;;;;;;;;;41.50;28.00;;;;;;;;5066709;28;61897;-76
2022/12/09 12:28:13;;;;;;;;;36.75;29.00;;;;;;;;5061895;28;61916;-76
2022/12/09 12:30:45;;;;;;;;;36.25;26.00;;;;;;;;5065005;28;62044;-76
2022/12/09 12:33:10;;;;;;;;;39.00;24.00;;;;;;;;5065125;28;61881;-75
2022/12/09 12:35:54;;;;;;;;;35.50;25.75;;;;;;;;5065298;28;61709;-77
2022/12/09 12:38:28;;;;;;;;;34.50;27.25;;;;;;;;5066512;28;61925;-76
2022/12/09 12:40:53;;;;;;;;;35.50;26.75;;;;;;;;5079979;28;61833;-77
2022/12/09 12:46:26;;;;;;;;;25.25;21.75;;;;;;;;5063773;28;62071;-77
2022/12/09 12:49:14;;;;;;;;;30.00;21.25;;;;;;;;5045386;28;63598;-77
2022/12/09 12:51:42;;;;;;;;;36.00;21.50;;;;;;;;5066133;28;62187;-77
2022/12/09 12:54:11;;;;;;;;;27.75;23.75;;;;;;;;5062465;28;62061;-76
2022/12/09 12:56:44;;;;;;;;;24.00;22.25;;;;;;;;5046786;28;62146;-76
2022/12/09 12:59:12;;;;;;;;;29.50;21.75;;;;;;;;5063314;28;61860;-76
2022/12/09 13:02:04;;;;;;;;;27.75;21.00;;;;;;;;5037243;28;61962;-78
2022/12/09 13:04:43;;;;;;;;;24.50;23.25;;;;;;;;5021614;28;62144;-77
2022/12/09 13:07:18;;;;;;;;;34.25;27.25;;;;;;;;5022519;28;61927;-77
2022/12/09 13:09:48;;;;;;;;;33.50;22.50;;;;;;;;5021280;28;62795;-77
2022/12/09 13:12:16;;;;;;;;;26.50;22.50;;;;;;;;5020894;28;61970;-77
2022/12/09 13:14:52;;;;;;;;;20.75;19.00;;;;;;;;5004283;28;62265;-77
2022/12/09 13:17:21;;;;;;;;;24.00;23.00;;;;;;;;5021327;28;61820;-77
2022/12/09 13:19:47;;;;;;;;;29.75;22.25;;;;;;;;5002303;28;64187;-77
2022/12/09 13:22:33;;;;;;;;;34.25;22.50;;;;;;;;5020614;28;62414;-77
2022/12/09 13:25:19;;;;;;;;;29.75;23.50;;;;;;;;4961844;28;61962;-77
2022/12/09 13:27:50;;;;;;;;;24.00;18.50;;;;;;;;4904221;29;62326;-77
2022/12/09 13:30:21;;;;;;;;;28.75;19.75;;;;;;;;4904088;29;63036;-77
2022/12/09 13:33:07;;;;;;;;;21.50;14.75;;;;;;;;4904263;29;61849;-78
2022/12/09 13:35:42;;;;;;;;;22.00;21.50;;;;;;;;4898994;29;61912;-77
2022/12/09 13:38:24;;;;;;;;;29.25;19.50;;;;;;;;4868833;29;61979;-77
2022/12/09 13:40:50;;;;;;;;;33.50;22.00;;;;;;;;4875044;29;64651;-77
2022/12/09 13:43:24;;;;;;;;;28.00;20.75;;;;;;;;4904193;29;61822;-77
2022/12/09 13:45:53;;;;;;;;;36.00;26.50;;;;;;;;4904252;29;61875;-77
2022/12/09 13:48:21;;;;;;;;;22.50;21.50;;;;;;;;4903424;29;61989;-77
2022/12/09 13:50:50;;;;;;;;;20.50;19.50;;;;;;;;4902740;29;63077;-77
2022/12/09 13:53:19;;;;;;;;;34.00;19.75;;;;;;;;4904128;28;62023;-77
2022/12/09 13:55:49;;;;;;;;;28.50;22.75;;;;;;;;4912568;28;62131;-77
2022/12/09 13:58:17;;;;;;;;;40.50;22.00;;;;;;;;4920716;28;62198;-77
2022/12/09 14:00:54;;;;;;;;;20.50;19.50;;;;;;;;4911706;28;63245;-77
2022/12/09 14:03:36;;;;;;;;;29.25;23.00;;;;;;;;4960977;28;62519;-77
2022/12/09 14:06:19;;;;;;;;;30.75;20.00;;;;;;;;5024263;28;62097;-77
2022/12/09 14:08:47;;;;;;;;;37.25;20.50;;;;;;;;5072804;28;62495;-77
2022/12/09 14:11:31;;;;;;;;;30.75;21.25;;;;;;;;5070047;28;62855;-74
2022/12/09 14:14:26;;;;;;;;;30.50;18.00;;;;;;;;5077828;28;61868;-75
2022/12/09 14:17:01;;;;;;;;;21.00;19.50;;;;;;;;5008736;28;62496;-75
2022/12/09 14:19:28;;;;;;;;;27.25;22.00;;;;;;;;5014105;28;62122;-73
2022/12/09 14:22:15;;;;;;;;;24.75;21.75;;;;;;;;5011984;28;62351;-76
2022/12/09 14:24:48;;;;;;;;;21.25;16.00;;;;;;;;4999064;28;62026;-74
2022/12/09 14:27:14;;;;;;;;;24.75;19.25;;;;;;;;5005354;28;62175;-76
2022/12/09 14:30:02;;;;;;;;;29.25;22.50;;;;;;;;5013805;28;62125;-75
2022/12/09 14:32:28;;;;;;;;;20.75;17.50;;;;;;;;4991325;28;61995;-76